Time;durP1;ratioP1;P1;durP2;ratioP2;P2;SDS_P1;SDS_P2;PMS_P1;PMS_P2;Temp;Humidity;BMP_temperature;BMP_pressure;BME280_temperature;BME280_humidity;BME280_pressure;Samples;Min_cycle;Max_cycle;Signal;HPM_P1;HPM_P2
2021/10/04 00:02:14;;;;;;;;;1.00;0.00;;;;;-142.87;100.00;62491.59;5118422;27;46556;-76
2021/10/04 00:04:40;;;;;;;;;1.00;0.00;;;;;-142.87;100.00;62491.59;5118375;27;45381;-77
2021/10/04 00:10:27;;;;;;;;;0.50;0.00;;;;;-142.87;100.00;62491.59;5118486;27;45239;-77
2021/10/04 00:12:53;;;;;;;;;0.00;0.00;;;;;-142.87;100.00;62491.59;5118047;27;46691;-77
2021/10/04 00:15:20;;;;;;;;;0.00;0.00;;;;;-142.87;100.00;62491.59;5118044;27;45274;-76
2021/10/04 00:17:46;;;;;;;;;0.50;0.00;;;;;-142.87;100.00;62491.59;5118657;27;45320;-76
2021/10/04 00:20:14;;;;;;;;;0.00;0.00;;;;;-142.87;100.00;62491.59;5118571;27;45459;-77
2021/10/04 00:22:40;;;;;;;;;1.00;0.00;;;;;-142.87;100.00;62491.59;5117545;27;47367;-77
2021/10/04 00:25:07;;;;;;;;;0.00;0.00;;;;;-142.87;100.00;62491.59;5117852;27;45359;-76
2021/10/04 00:27:32;;;;;;;;;1.00;0.00;;;;;-142.87;100.00;62491.59;5118031;27;45467;-77
2021/10/04 00:30:05;;;;;;;;;1.00;0.00;;;;;-142.87;100.00;62491.59;5120422;27;45245;-78
2021/10/04 00:32:30;;;;;;;;;0.00;0.00;;;;;-142.87;100.00;62491.59;5121637;27;47226;-78
2021/10/04 00:34:56;;;;;;;;;1.00;0.00;;;;;-142.87;100.00;62491.59;5121432;27;45348;-78
2021/10/04 00:37:21;;;;;;;;;0.00;0.00;;;;;-142.87;100.00;62491.59;5121806;27;45324;-79
2021/10/04 00:39:47;;;;;;;;;0.00;0.00;;;;;-142.87;100.00;62491.59;5121947;27;45321;-77
2021/10/04 00:42:12;;;;;;;;;0.00;0.00;;;;;-142.87;100.00;62491.59;5121753;27;46262;-77
2021/10/04 00:44:38;;;;;;;;;0.00;0.00;;;;;-142.87;100.00;62491.59;5121708;27;45226;-76
2021/10/04 00:47:03;;;;;;;;;1.00;0.00;;;;;-142.87;100.00;62491.59;5121453;27;45233;-77
2021/10/04 00:49:29;;;;;;;;;0.75;0.00;;;;;-142.87;100.00;62491.59;5121706;27;45251;-77
2021/10/04 00:55:16;;;;;;;;;1.00;1.00;;;;;-142.87;100.00;62491.59;5121189;27;45624;-77
2021/10/04 00:57:42;;;;;;;;;0.00;0.00;;;;;-142.87;100.00;62491.59;5121514;27;45365;-78
2021/10/04 01:00:11;;;;;;;;;0.00;0.00;;;;;-142.87;100.00;62491.59;5121606;27;45288;-78
2021/10/04 01:02:38;;;;;;;;;0.25;0.00;;;;;-142.87;100.00;62491.59;5120903;27;46433;-77
2021/10/04 01:05:04;;;;;;;;;1.00;0.00;;;;;-142.87;100.00;62491.59;5121069;27;45645;-78
2021/10/04 01:10:52;;;;;;;;;0.00;0.00;;;;;-142.87;100.00;62491.59;5121331;27;45231;-78
2021/10/04 01:13:17;;;;;;;;;0.00;0.00;;;;;-142.87;100.00;62491.59;5120965;27;46527;-77
2021/10/04 01:15:43;;;;;;;;;0.50;0.00;;;;;-142.87;100.00;62491.59;5120620;27;45343;-77
2021/10/04 01:18:08;;;;;;;;;0.75;0.00;;;;;-142.87;100.00;62491.59;5121098;27;45432;-78
2021/10/04 01:20:34;;;;;;;;;0.00;0.00;;;;;-142.87;100.00;62491.59;5121237;27;45303;-78
2021/10/04 01:23:00;;;;;;;;;2.00;0.00;;;;;-142.87;100.00;62491.59;5120496;27;47122;-77
2021/10/04 01:25:25;;;;;;;;;1.50;0.50;;;;;-142.87;100.00;62491.59;5121038;27;45390;-77
2021/10/04 01:27:52;;;;;;;;;1.00;0.00;;;;;-142.87;100.00;62491.59;5120985;27;45472;-77
2021/10/04 01:30:21;;;;;;;;;0.50;0.00;;;;;-142.87;100.00;62491.59;5121385;27;45272;-77
2021/10/04 01:32:47;;;;;;;;;0.25;0.00;;;;;-142.87;100.00;62491.59;5120953;27;46429;-77
2021/10/04 01:35:13;;;;;;;;;0.00;0.00;;;;;-142.87;100.00;62491.59;5120334;27;45578;-77
2021/10/04 01:41:01;;;;;;;;;0.00;0.00;;;;;-142.87;100.00;62491.59;5120475;27;45389;-77
2021/10/04 01:43:26;;;;;;;;;0.00;0.00;;;;;-142.87;100.00;62491.59;5120410;27;47049;-76
2021/10/04 01:45:51;;;;;;;;;1.00;0.00;;;;;-142.87;100.00;62491.59;5120523;27;45374;-77
2021/10/04 01:48:17;;;;;;;;;0.00;0.00;;;;;-142.87;100.00;62491.59;5120523;27;45422;-77
2021/10/04 01:50:42;;;;;;;;;1.00;1.00;;;;;-142.87;100.00;62491.59;5121111;27;45353;-73
2021/10/04 01:53:08;;;;;;;;;0.00;0.00;;;;;-142.87;100.00;62491.59;5120801;27;47193;-78
2021/10/04 01:55:33;;;;;;;;;0.25;0.00;;;;;-142.87;100.00;62491.59;5120346;27;45677;-78
2021/10/04 01:58:00;;;;;;;;;0.00;0.00;;;;;-142.87;100.00;62491.59;5120837;27;45323;-77
2021/10/04 02:00:26;;;;;;;;;0.00;0.00;;;;;-142.87;100.00;62491.59;5120747;27;45327;-78
2021/10/04 02:02:54;;;;;;;;;0.00;0.00;;;;;-142.87;100.00;62491.59;5120454;27;46414;-78
2021/10/04 02:05:23;;;;;;;;;0.00;0.00;;;;;-142.87;100.00;62491.59;5119987;27;45943;-77
2021/10/04 02:11:10;;;;;;;;;1.00;0.00;;;;;-142.87;100.00;62491.59;5120485;27;45266;-79
2021/10/04 02:13:35;;;;;;;;;0.00;0.00;;;;;-142.87;100.00;62491.59;5119964;27;45648;-78
2021/10/04 02:16:00;;;;;;;;;1.00;0.00;;;;;-142.87;100.00;62491.59;5119827;27;45153;-77
2021/10/04 02:18:26;;;;;;;;;0.00;0.00;;;;;-142.87;100.00;62491.59;5120127;27;45260;-77
2021/10/04 02:20:51;;;;;;;;;0.75;0.00;;;;;-142.87;100.00;62491.59;5120241;27;45412;-73
2021/10/04 02:23:17;;;;;;;;;0.75;0.00;;;;;-142.87;100.00;62491.59;5119637;27;47130;-78
2021/10/04 02:25:45;;;;;;;;;2.00;0.00;;;;;-142.87;100.00;62491.59;5119738;27;45408;-78
2021/10/04 02:28:12;;;;;;;;;2.00;0.00;;;;;-142.87;100.00;62491.59;5120205;27;45378;-79
2021/10/04 02:30:38;;;;;;;;;0.25;0.00;;;;;-142.87;100.00;62491.59;5101416;27;45546;-79
2021/10/04 02:33:05;;;;;;;;;0.00;0.00;;;;;-142.87;100.00;62491.59;5119494;27;46222;-79
2021/10/04 02:35:30;;;;;;;;;1.00;0.00;;;;;-142.87;100.00;62491.59;5119559;27;45209;-78
2021/10/04 02:41:18;;;;;;;;;0.00;0.00;;;;;-142.87;100.00;62491.59;5119853;27;45303;-78
2021/10/04 02:43:44;;;;;;;;;0.00;0.00;;;;;-142.87;100.00;62491.59;5119746;27;45752;-78
2021/10/04 02:46:09;;;;;;;;;0.50;0.00;;;;;-142.87;100.00;62491.59;5119807;27;45258;-78
2021/10/04 02:48:34;;;;;;;;;0.50;0.00;;;;;-142.87;100.00;62491.59;5119443;27;45225;-77
2021/10/04 02:51:00;;;;;;;;;0.25;0.00;;;;;-142.87;100.00;62491.59;5119520;27;45321;-77
2021/10/04 02:53:26;;;;;;;;;1.00;0.00;;;;;-142.87;100.00;62491.59;5118349;27;47363;-78
2021/10/04 02:55:52;;;;;;;;;0.00;0.00;;;;;-142.87;100.00;62491.59;5119634;27;45760;-79
2021/10/04 02:58:17;;;;;;;;;0.00;0.00;;;;;-142.87;100.00;62491.59;5119383;27;45425;-78
2021/10/04 03:00:43;;;;;;;;;1.50;1.00;;;;;-142.87;100.00;62491.59;5119572;27;45416;-79
2021/10/04 03:03:08;;;;;;;;;0.00;0.00;;;;;-142.87;100.00;62491.59;5119179;27;45496;-78
2021/10/04 03:05:34;;;;;;;;;2.00;0.00;;;;;-142.87;100.00;62491.59;5119191;27;45245;-79
2021/10/04 03:11:21;;;;;;;;;0.25;0.00;;;;;-142.87;100.00;62491.59;5119465;27;45416;-78
2021/10/04 03:13:47;;;;;;;;;0.00;0.00;;;;;-142.87;100.00;62491.59;5119382;27;45435;-78
2021/10/04 03:16:12;;;;;;;;;1.50;0.00;;;;;-142.87;100.00;62491.59;5119241;27;45436;-77
2021/10/04 03:18:37;;;;;;;;;1.00;0.00;;;;;-142.87;100.00;62491.59;5119225;27;45429;-78
2021/10/04 03:21:03;;;;;;;;;0.25;0.00;;;;;-142.87;100.00;62491.59;5119361;27;45322;-75
2021/10/04 03:23:29;;;;;;;;;1.00;0.00;;;;;-142.87;100.00;62491.59;5118542;27;47418;-77
2021/10/04 03:25:54;;;;;;;;;1.00;1.00;;;;;-142.87;100.00;62491.59;5119037;27;45363;-78
2021/10/04 03:28:20;;;;;;;;;0.00;0.00;;;;;-142.87;100.00;62491.59;5119249;27;45535;-77
2021/10/04 03:30:45;;;;;;;;;2.00;1.00;;;;;-142.87;100.00;62491.59;5118931;27;45277;-77
2021/10/04 03:33:11;;;;;;;;;0.00;0.00;;;;;-142.87;100.00;62491.59;5118507;27;45941;-77
2021/10/04 03:35:36;;;;;;;;;0.50;0.00;;;;;-142.87;100.00;62491.59;5119022;27;45397;-78
2021/10/04 03:41:24;;;;;;;;;0.00;0.00;;;;;-142.87;100.00;62491.59;5118952;27;45361;-78
2021/10/04 03:43:49;;;;;;;;;0.00;0.00;;;;;-142.87;100.00;62491.59;5118879;27;46106;-76
2021/10/04 03:46:15;;;;;;;;;1.00;0.50;;;;;-142.87;100.00;62491.59;5119047;27;45811;-78
2021/10/04 03:48:40;;;;;;;;;1.00;0.00;;;;;-142.87;100.00;62491.59;5118979;27;45326;-79
2021/10/04 03:51:06;;;;;;;;;1.00;0.00;;;;;-142.87;100.00;62491.59;5118713;27;45307;-78
2021/10/04 03:56:53;;;;;;;;;0.25;0.00;;;;;-142.87;100.00;62491.59;5118334;27;45651;-79
2021/10/04 03:59:18;;;;;;;;;0.25;0.00;;;;;-142.87;100.00;62491.59;5118670;27;45358;-79
2021/10/04 04:01:44;;;;;;;;;1.75;0.00;;;;;-142.87;100.00;62491.59;5118941;27;45318;-79
2021/10/04 04:04:09;;;;;;;;;0.00;0.00;;;;;-142.87;100.00;62491.59;5120767;27;45610;-79
2021/10/04 04:06:35;;;;;;;;;0.25;0.25;;;;;-142.87;100.00;62491.59;5122004;27;45373;-80
2021/10/04 04:09:00;;;;;;;;;1.00;0.00;;;;;-142.87;100.00;62491.59;5122426;27;45346;-79
2021/10/04 04:11:26;;;;;;;;;0.00;0.00;;;;;-142.87;100.00;62491.59;5122199;27;45392;-78
2021/10/04 04:13:51;;;;;;;;;0.75;0.00;;;;;-142.87;100.00;62491.59;5121911;27;47127;-79
2021/10/04 04:16:16;;;;;;;;;1.00;0.75;;;;;-142.87;100.00;62491.59;5122367;27;45420;-79
2021/10/04 04:18:42;;;;;;;;;0.00;0.00;;;;;-142.87;100.00;62491.59;5122373;27;45283;-79
2021/10/04 04:21:08;;;;;;;;;0.00;0.00;;;;;-142.87;100.00;62491.59;5122357;27;45415;-80
2021/10/04 04:27:35;;;;;;;;;0.00;0.00;;;;;-142.87;100.00;62491.59;5121092;27;45370;-79
2021/10/04 04:30:01;;;;;;;;;0.00;0.00;;;;;-142.87;100.00;62491.59;5121687;27;45350;-80
2021/10/04 04:32:27;;;;;;;;;0.75;0.00;;;;;-142.87;100.00;62491.59;5121791;27;45470;-80
2021/10/04 04:34:53;;;;;;;;;0.50;0.00;;;;;-142.87;100.00;62491.59;5121543;27;45370;-80
2021/10/04 04:37:19;;;;;;;;;0.75;0.00;;;;;-142.87;100.00;62491.59;5121812;27;45331;-80
2021/10/04 04:39:45;;;;;;;;;0.75;0.50;;;;;-142.87;100.00;62491.59;5121411;27;45273;-80
2021/10/04 04:42:10;;;;;;;;;1.25;0.00;;;;;-142.87;100.00;62491.59;5121640;27;45513;-80
2021/10/04 04:44:35;;;;;;;;;0.00;0.00;;;;;-142.87;100.00;62491.59;5121181;27;46206;-81
2021/10/04 04:47:01;;;;;;;;;1.00;0.00;;;;;-142.87;100.00;62491.59;5121303;27;45165;-79
2021/10/04 04:49:26;;;;;;;;;0.00;0.00;;;;;-142.87;100.00;62491.59;5121530;27;45505;-80
2021/10/04 04:52:01;;;;;;;;;0.50;0.25;;;;;-142.87;100.00;62491.59;5121435;27;45393;-80
2021/10/04 04:54:26;;;;;;;;;0.00;0.00;;;;;-142.87;100.00;62491.59;5121128;27;46489;-80
2021/10/04 04:56:59;;;;;;;;;0.00;0.00;;;;;-142.87;100.00;62491.59;5121347;27;45294;-79
2021/10/04 04:59:24;;;;;;;;;0.00;0.00;;;;;-142.87;100.00;62491.59;5121316;27;45305;-79
2021/10/04 05:01:50;;;;;;;;;1.00;0.00;;;;;-142.87;100.00;62491.59;5121698;27;45353;-78
2021/10/04 05:04:15;;;;;;;;;1.00;0.00;;;;;-142.87;100.00;62491.59;5120947;27;46199;-79
2021/10/04 05:06:41;;;;;;;;;0.00;0.00;;;;;-142.87;100.00;62491.59;5121000;27;45264;-79
2021/10/04 05:12:28;;;;;;;;;1.25;1.00;;;;;-142.87;100.00;62491.59;5121177;27;45254;-78
2021/10/04 05:14:53;;;;;;;;;1.00;0.00;;;;;-142.87;100.00;62491.59;5120008;27;46397;-77
2021/10/04 05:17:19;;;;;;;;;1.25;1.00;;;;;-142.87;100.00;62491.59;5120651;27;45322;-77
2021/10/04 05:19:44;;;;;;;;;2.00;0.25;;;;;-142.87;100.00;62491.59;5120741;27;45245;-77
2021/10/04 05:22:10;;;;;;;;;0.75;0.25;;;;;-142.87;100.00;62491.59;5121014;27;45379;-77
2021/10/04 05:24:35;;;;;;;;;1.00;1.00;;;;;-142.87;100.00;62491.59;5120574;27;46153;-76
2021/10/04 05:27:01;;;;;;;;;1.50;1.50;;;;;-142.87;100.00;62491.59;5120542;27;45295;-78
2021/10/04 05:29:26;;;;;;;;;1.75;0.75;;;;;-142.87;100.00;62491.59;5120986;27;45217;-78
2021/10/04 05:31:52;;;;;;;;;1.00;1.00;;;;;-142.87;100.00;62491.59;5120776;27;45321;-75
2021/10/04 05:34:17;;;;;;;;;2.50;2.50;;;;;-142.87;100.00;62491.59;5120594;27;46406;-73
2021/10/04 05:36:43;;;;;;;;;1.00;1.00;;;;;-142.87;100.00;62491.59;5101693;27;45405;-74
2021/10/04 05:42:32;;;;;;;;;1.00;1.00;;;;;-142.87;100.00;62491.59;5120558;27;45275;-74
2021/10/04 05:44:59;;;;;;;;;0.50;0.50;;;;;-142.87;100.00;62491.59;5120022;27;46300;-73
2021/10/04 05:47:24;;;;;;;;;1.50;1.50;;;;;-142.87;100.00;62491.59;5119638;27;45735;-73
2021/10/04 05:49:50;;;;;;;;;1.00;1.00;;;;;-142.87;100.00;62491.59;5119908;27;45652;-74
2021/10/04 05:52:15;;;;;;;;;1.00;0.75;;;;;-142.87;100.00;62491.59;5120236;27;45374;-77
2021/10/04 05:54:40;;;;;;;;;1.00;1.00;;;;;-142.87;100.00;62491.59;5119325;27;47110;-73
2021/10/04 05:57:06;;;;;;;;;1.25;1.00;;;;;-142.87;100.00;62491.59;5119765;27;45360;-72
2021/10/04 05:59:31;;;;;;;;;2.25;0.00;;;;;-142.87;100.00;62491.59;5120177;27;45368;-75
2021/10/04 06:01:57;;;;;;;;;1.00;1.00;;;;;-142.87;100.00;62491.59;5101665;27;45389;-74
2021/10/04 06:04:22;;;;;;;;;1.00;1.00;;;;;-142.87;100.00;62491.59;5119763;27;47276;-70
2021/10/04 06:06:47;;;;;;;;;0.00;0.00;;;;;-142.87;100.00;62491.59;5119758;27;45335;-72
2021/10/04 06:12:34;;;;;;;;;2.00;0.75;;;;;-142.87;100.00;62491.59;5119875;27;45353;-73
2021/10/04 06:15:01;;;;;;;;;1.00;1.00;;;;;-142.87;100.00;62491.59;5119740;27;46336;-72
2021/10/04 06:17:27;;;;;;;;;1.00;1.00;;;;;-142.87;100.00;62491.59;5119582;27;45400;-73
2021/10/04 06:19:54;;;;;;;;;2.00;1.00;;;;;-142.87;100.00;62491.59;5119678;27;45350;-73
2021/10/04 06:22:20;;;;;;;;;2.25;1.00;;;;;-142.87;100.00;62491.59;5119701;27;45221;-71
2021/10/04 06:24:45;;;;;;;;;1.00;1.00;;;;;-142.87;100.00;62491.59;5119740;27;45430;-72
2021/10/04 06:27:11;;;;;;;;;2.00;1.00;;;;;-142.87;100.00;62491.59;5118084;27;45463;-72
2021/10/04 06:29:37;;;;;;;;;1.00;0.25;;;;;-142.87;100.00;62491.59;5119523;27;45271;-73
2021/10/04 06:32:06;;;;;;;;;1.00;1.00;;;;;-142.87;100.00;62491.59;5119426;27;45412;-73
2021/10/04 06:34:32;;;;;;;;;2.00;1.00;;;;;-142.87;100.00;62491.59;5118897;27;46627;-74
2021/10/04 06:36:57;;;;;;;;;1.00;1.00;;;;;-142.87;100.00;62491.59;5119442;27;45287;-73
2021/10/04 06:42:59;;;;;;;;;2.00;1.50;;;;;-142.87;100.00;62491.59;5119307;27;45299;-68
2021/10/04 06:45:24;;;;;;;;;1.00;1.00;;;;;-142.87;100.00;62491.59;5118890;27;46400;-68
2021/10/04 06:47:50;;;;;;;;;1.50;1.00;;;;;-142.87;100.00;62491.59;5119263;27;45295;-68
2021/10/04 06:50:15;;;;;;;;;2.75;2.75;;;;;-142.87;100.00;62491.59;5119129;27;45217;-67
2021/10/04 06:52:41;;;;;;;;;2.50;2.00;;;;;-142.87;100.00;62491.59;5119210;27;45232;-69
2021/10/04 06:55:09;;;;;;;;;0.00;0.00;;;;;-142.87;100.00;62491.59;5119125;27;45272;-69
2021/10/04 06:57:36;;;;;;;;;2.25;2.00;;;;;-142.87;100.00;62491.59;5118999;27;45443;-68
2021/10/04 07:00:19;;;;;;;;;2.75;2.00;;;;;-142.87;100.00;62491.59;5119001;27;45420;-70
2021/10/04 07:02:45;;;;;;;;;2.50;0.00;;;;;-142.87;100.00;62491.59;5119611;27;45448;-70
2021/10/04 07:05:10;;;;;;;;;3.00;2.50;;;;;-142.87;100.00;62491.59;5118814;27;46934;-72
2021/10/04 07:07:36;;;;;;;;;1.75;1.75;;;;;-142.87;100.00;62491.59;5119260;27;45351;-71
2021/10/04 07:10:03;;;;;;;;;2.75;2.75;;;;;-142.87;100.00;62491.59;5119129;27;45399;-71
2021/10/04 07:12:29;;;;;;;;;3.75;2.00;;;;;-142.87;100.00;62491.59;5119283;27;45348;-74
2021/10/04 07:14:55;;;;;;;;;1.00;1.00;;;;;-142.87;100.00;62491.59;5118992;27;46267;-71
2021/10/04 07:17:20;;;;;;;;;2.75;2.00;;;;;-142.87;100.00;62491.59;5118940;27;45295;-71
2021/10/04 07:19:46;;;;;;;;;3.50;2.00;;;;;-142.87;100.00;62491.59;5119056;27;45228;-72
2021/10/04 07:22:12;;;;;;;;;1.00;1.00;;;;;-142.87;100.00;62491.59;5119093;27;45411;-71
2021/10/04 07:28:01;;;;;;;;;2.00;1.00;;;;;-142.87;100.00;62491.59;5116801;27;45316;-72
2021/10/04 07:30:26;;;;;;;;;2.00;1.75;;;;;-142.87;100.00;62491.59;5118932;27;45346;-72
2021/10/04 07:32:52;;;;;;;;;3.00;3.00;;;;;-142.87;100.00;62491.59;5118922;27;45271;-74
2021/10/04 07:35:18;;;;;;;;;2.00;2.00;;;;;-142.87;100.00;62491.59;5118122;27;46300;-74
2021/10/04 07:37:43;;;;;;;;;2.00;2.00;;;;;-142.87;100.00;62491.59;5118307;27;45293;-73
2021/10/04 07:40:11;;;;;;;;;2.25;1.50;;;;;-142.87;100.00;62491.59;5118777;27;45780;-72
2021/10/04 07:42:36;;;;;;;;;3.00;2.00;;;;;-142.87;100.00;62491.59;5119003;27;45457;-72
2021/10/04 07:45:03;;;;;;;;;2.75;1.00;;;;;-142.87;100.00;62491.59;5118412;27;45563;-72
2021/10/04 07:47:28;;;;;;;;;2.00;1.00;;;;;-142.87;100.00;62491.59;5118616;27;45589;-72
2021/10/04 07:49:54;;;;;;;;;0.75;0.75;;;;;-142.87;100.00;62491.59;5118742;27;45274;-74
2021/10/04 07:52:19;;;;;;;;;3.00;1.00;;;;;-142.87;100.00;62491.59;5118724;27;45410;-72
2021/10/04 07:58:06;;;;;;;;;1.00;1.00;;;;;-142.87;100.00;62491.59;5118150;27;45363;-71
2021/10/04 08:00:32;;;;;;;;;1.00;1.00;;;;;-142.87;100.00;62491.59;5118510;27;45377;-72
2021/10/04 08:02:57;;;;;;;;;3.00;2.75;;;;;-142.87;100.00;62491.59;5118648;27;45313;-72
2021/10/04 08:05:23;;;;;;;;;1.00;1.00;;;;;-142.87;100.00;62491.59;5117948;27;46898;-72
2021/10/04 08:07:48;;;;;;;;;0.00;0.00;;;;;-142.87;100.00;62491.59;5118233;27;45331;-71
2021/10/04 08:13:35;;;;;;;;;2.00;1.00;;;;;-142.87;100.00;62491.59;5118185;27;45421;-73
2021/10/04 08:16:03;;;;;;;;;2.00;1.00;;;;;-142.87;100.00;62491.59;5117735;27;47228;-73
2021/10/04 08:18:28;;;;;;;;;1.00;1.00;;;;;-142.87;100.00;62491.59;5117798;27;45469;-74
2021/10/04 08:20:54;;;;;;;;;2.00;1.00;;;;;-142.87;100.00;62491.59;5118200;27;45336;-74
2021/10/04 08:23:19;;;;;;;;;0.75;0.50;;;;;-142.87;100.00;62491.59;5118417;27;45302;-70
2021/10/04 08:25:45;;;;;;;;;1.50;1.00;;;;;-142.87;100.00;62491.59;5117508;27;47274;-73
2021/10/04 08:28:10;;;;;;;;;1.75;1.00;;;;;-142.87;100.00;62491.59;5117712;27;45294;-72
2021/10/04 08:30:35;;;;;;;;;0.50;0.50;;;;;-142.87;100.00;62491.59;5118066;27;45279;-72
2021/10/04 08:33:01;;;;;;;;;2.00;0.50;;;;;-142.87;100.00;62491.59;5116593;27;45321;-72
2021/10/04 08:35:27;;;;;;;;;0.00;0.00;;;;;-142.87;100.00;62491.59;5117671;27;45470;-72
2021/10/04 08:37:52;;;;;;;;;1.00;1.00;;;;;-142.87;100.00;62491.59;5117109;27;45924;-72
2021/10/04 08:43:42;;;;;;;;;1.25;1.25;;;;;-142.87;100.00;62491.59;5117886;27;45166;-73
2021/10/04 08:46:08;;;;;;;;;0.25;0.00;;;;;-142.87;100.00;62491.59;5117480;27;47296;-71
2021/10/04 08:48:33;;;;;;;;;0.50;0.50;;;;;-142.87;100.00;62491.59;5117902;27;45637;-72
2021/10/04 08:50:59;;;;;;;;;1.00;0.25;;;;;-142.87;100.00;62491.59;5119425;27;45276;-72
2021/10/04 08:53:24;;;;;;;;;1.00;1.00;;;;;-142.87;100.00;62491.59;5121648;27;45311;-74
2021/10/04 08:55:51;;;;;;;;;1.00;1.00;;;;;-142.87;100.00;62491.59;5120993;27;46901;-74
2021/10/04 08:58:17;;;;;;;;;0.00;0.00;;;;;-142.87;100.00;62491.59;5121231;27;45673;-73
2021/10/04 09:00:42;;;;;;;;;0.00;0.00;;;;;-142.87;100.00;62491.59;5121077;27;45344;-73
2021/10/04 09:03:07;;;;;;;;;0.75;0.75;;;;;-142.87;100.00;62491.59;5121419;27;45358;-73
2021/10/04 09:05:36;;;;;;;;;0.00;0.00;;;;;-142.87;100.00;62491.59;5120960;27;45253;-74
2021/10/04 09:08:07;;;;;;;;;0.25;0.25;;;;;-142.87;100.00;62491.59;5120621;27;45260;-73
2021/10/04 09:13:59;;;;;;;;;0.25;0.00;;;;;-142.87;100.00;62491.59;5120999;27;45362;-73
2021/10/04 09:16:25;;;;;;;;;0.00;0.00;;;;;-142.87;100.00;62491.59;5120697;27;45397;-71
2021/10/04 09:18:51;;;;;;;;;1.00;1.00;;;;;-142.87;100.00;62491.59;5120884;27;45311;-75
2021/10/04 09:21:17;;;;;;;;;1.00;0.25;;;;;-142.87;100.00;62491.59;5120731;27;45386;-72
2021/10/04 09:23:48;;;;;;;;;0.25;0.25;;;;;-142.87;100.00;62491.59;5121013;27;45215;-71
2021/10/04 09:26:25;;;;;;;;;1.25;0.00;;;;;-142.87;100.00;62491.59;5119982;27;47188;-73
2021/10/04 09:29:11;;;;;;;;;2.00;1.00;;;;;-142.87;100.00;62491.59;5120075;27;45473;-72
2021/10/04 09:31:42;;;;;;;;;1.50;0.00;;;;;-142.87;100.00;62491.59;5120224;27;45383;-72
2021/10/04 09:34:16;;;;;;;;;1.00;0.25;;;;;-142.87;100.00;62491.59;5120643;27;45292;-73
2021/10/04 09:36:52;;;;;;;;;1.00;1.00;;;;;-142.87;100.00;62491.59;5120046;27;47183;-73
2021/10/04 09:39:19;;;;;;;;;0.00;0.00;;;;;-142.87;100.00;62491.59;5120551;27;45613;-73
2021/10/04 09:42:04;;;;;;;;;2.00;1.00;;;;;-142.87;100.00;62491.59;5120592;27;45309;-73
2021/10/04 09:45:00;;;;;;;;;0.25;0.00;;;;;-142.87;100.00;62491.59;5120447;27;45456;-73
2021/10/04 09:47:42;;;;;;;;;0.00;0.00;;;;;-142.87;100.00;62491.59;5101602;27;48471;-71
2021/10/04 09:50:07;;;;;;;;;2.00;0.75;;;;;-142.87;100.00;62491.59;5119942;27;45454;-72
2021/10/04 09:52:41;;;;;;;;;1.00;0.00;;;;;-142.87;100.00;62491.59;5120287;27;45339;-72
2021/10/04 09:55:26;;;;;;;;;0.00;0.00;;;;;-142.87;100.00;62491.59;5101507;27;45477;-71
2021/10/04 09:58:01;;;;;;;;;0.00;0.00;;;;;-142.87;100.00;62491.59;5119651;27;45445;-71
2021/10/04 10:00:29;;;;;;;;;1.00;0.00;;;;;-142.87;100.00;62491.59;5119885;27;45308;-71
2021/10/04 10:02:55;;;;;;;;;0.75;0.00;;;;;-142.87;100.00;62491.59;5119677;27;45345;-72
2021/10/04 10:05:23;;;;;;;;;0.00;0.00;;;;;-142.87;100.00;62491.59;5120189;27;45504;-73
2021/10/04 10:07:49;;;;;;;;;1.00;1.00;;;;;-142.87;100.00;62491.59;5119682;27;46472;-72
2021/10/04 10:10:15;;;;;;;;;0.00;0.00;;;;;-142.87;100.00;62491.59;5119894;27;45453;-72
2021/10/04 10:12:40;;;;;;;;;0.25;0.00;;;;;-142.87;100.00;62491.59;5119959;27;45442;-73
2021/10/04 10:15:06;;;;;;;;;0.00;0.00;;;;;-142.87;100.00;62491.59;5120083;27;45360;-72
2021/10/04 10:17:34;;;;;;;;;0.00;0.00;;;;;-142.87;100.00;62491.59;5119488;27;47197;-73
2021/10/04 10:20:01;;;;;;;;;0.00;0.00;;;;;-142.87;100.00;62491.59;5119747;27;45500;-72
2021/10/04 10:22:32;;;;;;;;;0.00;0.00;;;;;-142.87;100.00;62491.59;5119788;27;45314;-72
2021/10/04 10:24:58;;;;;;;;;0.25;0.00;;;;;-142.87;100.00;62491.59;5119607;27;45357;-71
2021/10/04 10:27:41;;;;;;;;;2.25;1.00;;;;;-142.87;100.00;62491.59;5119436;27;46268;-71
2021/10/04 10:30:21;;;;;;;;;0.00;0.00;;;;;-142.87;100.00;62491.59;5119149;27;45628;-72
2021/10/04 10:32:46;;;;;;;;;0.25;0.00;;;;;-142.87;100.00;62491.59;5119329;27;45363;-71
2021/10/04 10:35:13;;;;;;;;;0.00;0.00;;;;;-142.87;100.00;62491.59;5119814;27;45373;-72
2021/10/04 10:37:49;;;;;;;;;0.25;0.00;;;;;-142.87;100.00;62491.59;5119076;27;47177;-73
2021/10/04 10:40:23;;;;;;;;;0.00;0.00;;;;;-142.87;100.00;62491.59;5119024;27;45507;-72
2021/10/04 10:43:09;;;;;;;;;0.00;0.00;;;;;-142.87;100.00;62491.59;5119601;27;45388;-71
2021/10/04 10:45:43;;;;;;;;;0.00;0.00;;;;;-142.87;100.00;62491.59;5119637;27;45313;-71
2021/10/04 10:48:09;;;;;;;;;0.00;0.00;;;;;-142.87;100.00;62491.59;5119357;27;46088;-71
2021/10/04 10:50:41;;;;;;;;;0.00;0.00;;;;;-142.87;100.00;62491.59;5119180;27;45326;-73
2021/10/04 10:53:10;;;;;;;;;0.00;0.00;;;;;-142.87;100.00;62491.59;5119145;27;45378;-72
2021/10/04 10:55:40;;;;;;;;;0.00;0.00;;;;;-142.87;100.00;62491.59;5119436;27;45386;-72
2021/10/04 10:58:21;;;;;;;;;1.00;0.00;;;;;-142.87;100.00;62491.59;5118966;27;46240;-71
2021/10/04 11:01:02;;;;;;;;;0.00;0.00;;;;;-142.87;100.00;62491.59;5119269;27;45454;-71
2021/10/04 11:03:28;;;;;;;;;0.00;0.00;;;;;-142.87;100.00;62491.59;5119173;27;45430;-71
2021/10/04 11:05:57;;;;;;;;;1.00;0.00;;;;;-142.87;100.00;62491.59;5100655;27;45356;-72
2021/10/04 11:08:29;;;;;;;;;0.00;0.00;;;;;-142.87;100.00;62491.59;5100158;27;46105;-71
2021/10/04 11:10:57;;;;;;;;;0.00;0.00;;;;;-142.87;100.00;62491.59;5118550;27;45501;-70
2021/10/04 11:13:25;;;;;;;;;0.00;0.00;;;;;-142.87;100.00;62491.59;5118220;27;45367;-72
2021/10/04 11:15:53;;;;;;;;;1.00;0.00;;;;;-142.87;100.00;62491.59;5118999;27;45313;-72
2021/10/04 11:18:20;;;;;;;;;0.00;0.00;;;;;-142.87;100.00;62491.59;5118827;27;45408;-72
2021/10/04 11:20:45;;;;;;;;;1.00;0.25;;;;;-142.87;100.00;62491.59;5118769;27;45297;-72
2021/10/04 11:23:14;;;;;;;;;0.00;0.00;;;;;-142.87;100.00;62491.59;5119091;27;45350;-71
2021/10/04 11:25:42;;;;;;;;;0.75;0.00;;;;;-142.87;100.00;62491.59;5119023;27;45409;-71
2021/10/04 11:28:08;;;;;;;;;0.00;0.00;;;;;-142.87;100.00;62491.59;5118627;27;46555;-71
2021/10/04 11:30:57;;;;;;;;;0.75;0.00;;;;;-142.87;100.00;62491.59;5100204;27;45595;-72
2021/10/04 11:33:50;;;;;;;;;0.00;0.00;;;;;-142.87;100.00;62491.59;5118831;27;45485;-72
2021/10/04 11:36:18;;;;;;;;;0.00;0.00;;;;;-142.87;100.00;62491.59;5108365;27;45583;-73
2021/10/04 11:38:54;;;;;;;;;0.25;0.00;;;;;-142.87;100.00;62491.59;5118295;27;47156;-71
2021/10/04 11:41:25;;;;;;;;;0.00;0.00;;;;;-142.87;100.00;62491.59;5118576;27;45185;-73
2021/10/04 11:43:59;;;;;;;;;0.00;0.00;;;;;-142.87;100.00;62491.59;5117103;27;45454;-70
2021/10/04 11:46:28;;;;;;;;;1.50;0.75;;;;;-142.87;100.00;62491.59;5118917;27;45357;-72
2021/10/04 11:49:01;;;;;;;;;0.00;0.00;;;;;-142.87;100.00;62491.59;5118429;27;46479;-72
2021/10/04 11:51:28;;;;;;;;;0.50;0.50;;;;;-142.87;100.00;62491.59;5118482;27;45361;-72
2021/10/04 11:53:54;;;;;;;;;0.75;0.75;;;;;-142.87;100.00;62491.59;5118648;27;45362;-72
2021/10/04 11:56:21;;;;;;;;;0.50;0.00;;;;;-142.87;100.00;62491.59;5118644;27;45274;-73
2021/10/04 11:58:52;;;;;;;;;0.25;0.25;;;;;-142.87;100.00;62491.59;5117959;27;45496;-72
2021/10/04 12:01:37;;;;;;;;;0.50;0.25;;;;;-142.87;100.00;62491.59;5118351;27;45387;-72
2021/10/04 12:04:07;;;;;;;;;0.50;0.00;;;;;-142.87;100.00;62491.59;5118549;27;45407;-71
2021/10/04 12:06:35;;;;;;;;;0.00;0.00;;;;;-142.87;100.00;62491.59;5118363;27;45265;-77
2021/10/04 12:09:01;;;;;;;;;1.00;0.00;;;;;-142.87;100.00;62491.59;5118058;27;45381;-72
2021/10/04 12:11:27;;;;;;;;;0.25;0.00;;;;;-142.87;100.00;62491.59;5118200;27;45562;-72
2021/10/04 12:13:53;;;;;;;;;1.00;1.00;;;;;-142.87;100.00;62491.59;5118525;27;45441;-72
2021/10/04 12:16:21;;;;;;;;;0.00;0.00;;;;;-142.87;100.00;62491.59;5118569;27;45350;-71